createdAt,value
2022-10-15T00:03:17.792Z,12.98
2022-10-15T00:08:20.110Z,13.17
2022-10-15T00:13:22.815Z,13.18
2022-10-15T00:18:25.183Z,13.51
2022-10-15T00:23:27.520Z,13.39
2022-10-15T00:28:33.399Z,13.36
2022-10-15T00:33:36.957Z,13.45
2022-10-15T00:38:39.347Z,13.43
2022-10-15T00:44:03.929Z,13.53
2022-10-15T00:49:09.180Z,13.54
2022-10-15T00:54:12.747Z,13.23
2022-10-15T00:59:15.650Z,13.21
2022-10-15T01:04:19.013Z,13.21
2022-10-15T01:09:21.366Z,13.35
2022-10-15T01:14:26.393Z,13.40
2022-10-15T01:19:57.074Z,13.50
2022-10-15T01:25:20.556Z,13.42
2022-10-15T01:30:29.993Z,13.54
2022-10-15T01:35:44.060Z,13.47
2022-10-15T01:41:17.239Z,13.65
2022-10-15T01:46:24.116Z,13.55
2022-10-15T01:51:38.261Z,13.49
2022-10-15T01:56:41.777Z,13.52
2022-10-15T02:01:44.700Z,13.40
2022-10-15T02:06:51.080Z,13.30
2022-10-15T02:12:38.763Z,13.25
2022-10-15T02:17:46.675Z,13.09
2022-10-15T02:23:05.334Z,13.09
2022-10-15T02:28:09.817Z,12.96
2022-10-15T02:33:12.978Z,12.84
2022-10-15T02:38:18.141Z,12.71
2022-10-15T02:43:22.641Z,12.58
2022-10-15T02:48:26.253Z,12.51
2022-10-15T02:53:28.593Z,12.39
2022-10-15T02:58:31.719Z,12.33
2022-10-15T03:03:34.545Z,12.23
2022-10-15T03:08:37.519Z,12.12
2022-10-15T03:13:41.395Z,11.97
2022-10-15T03:18:43.737Z,11.90
2022-10-15T03:23:46.925Z,11.76
2022-10-15T03:28:54.290Z,11.76
2022-10-15T03:34:23.083Z,11.73
2022-10-15T03:39:25.893Z,11.58
2022-10-15T03:44:32.304Z,11.55
2022-10-15T03:49:41.957Z,11.43
2022-10-15T03:54:44.409Z,11.33
2022-10-15T03:59:48.910Z,11.50
2022-10-15T04:04:53.645Z,11.53
2022-10-15T04:09:56.190Z,11.68
2022-10-15T04:15:03.142Z,11.76
2022-10-15T04:20:06.756Z,11.92
2022-10-15T04:25:09.710Z,11.75
2022-10-15T04:30:12.988Z,11.75
2022-10-15T04:35:20.871Z,11.66
2022-10-15T04:40:38.300Z,11.58
2022-10-15T04:45:40.611Z,11.64
2022-10-15T04:50:43.132Z,11.72
2022-10-15T04:56:01.173Z,11.69
2022-10-15T05:01:04.042Z,11.80
2022-10-15T05:06:19.642Z,11.73
2022-10-15T05:11:24.745Z,11.55
2022-10-15T05:16:29.558Z,11.75
2022-10-15T05:21:36.082Z,11.81
2022-10-15T05:26:41.557Z,11.76
2022-10-15T05:31:44.844Z,11.92
2022-10-15T05:36:53.857Z,11.80
2022-10-15T05:41:56.305Z,11.90
2022-10-15T05:47:11.970Z,12.01
2022-10-15T05:52:17.072Z,12.26
2022-10-15T05:57:41.286Z,12.31
2022-10-15T06:02:43.764Z,12.66
2022-10-15T06:07:46.244Z,12.88
2022-10-15T06:12:51.697Z,13.08
2022-10-15T06:17:54.515Z,13.23
2022-10-15T06:23:00.514Z,13.20
2022-10-15T06:28:03.918Z,13.18
2022-10-15T06:33:16.815Z,13.30
2022-10-15T06:38:19.111Z,13.39
2022-10-15T06:43:21.387Z,13.73
2022-10-15T06:48:23.912Z,13.62
2022-10-15T06:53:26.279Z,13.69
2022-10-15T06:58:29.179Z,13.74
2022-10-15T07:03:31.604Z,13.85
2022-10-15T07:08:34.586Z,13.72
2022-10-15T07:13:37.074Z,13.80
2022-10-15T07:18:39.967Z,13.94
2022-10-15T07:23:42.225Z,14.27
2022-10-15T07:28:44.639Z,14.61
2022-10-15T07:33:47.007Z,14.70
2022-10-15T07:38:49.342Z,15.20
2022-10-15T07:43:54.637Z,15.31
2022-10-15T07:48:57.070Z,15.77
2022-10-15T07:53:59.349Z,15.68
2022-10-15T07:59:01.659Z,15.69
2022-10-15T08:04:04.030Z,15.89
2022-10-15T08:09:06.578Z,15.74
2022-10-15T08:14:08.902Z,15.88
2022-10-15T08:19:11.189Z,16.09
2022-10-15T08:24:13.462Z,16.16
2022-10-15T08:29:16.015Z,16.37
2022-10-15T08:34:18.485Z,16.47
2022-10-15T08:39:20.846Z,16.46
2022-10-15T08:44:32.313Z,16.45
2022-10-15T08:49:49.989Z,16.54
2022-10-15T08:54:53.370Z,16.66
2022-10-15T09:00:03.654Z,16.66
2022-10-15T09:05:41.738Z,16.62
2022-10-15T09:10:51.187Z,16.65
2022-10-15T09:16:00.352Z,16.74
2022-10-15T09:21:05.697Z,16.92
2022-10-15T09:26:16.767Z,17.17
2022-10-15T09:31:23.102Z,17.50
2022-10-15T09:36:41.132Z,17.76
2022-10-15T09:42:25.011Z,18.16
2022-10-15T09:47:31.016Z,18.16
2022-10-15T09:53:13.357Z,18.00
2022-10-15T09:58:15.788Z,17.98
2022-10-15T10:03:18.382Z,18.08
2022-10-15T10:08:25.410Z,18.47
2022-10-15T10:13:33.744Z,18.65
2022-10-15T10:18:37.838Z,18.68
2022-10-15T10:23:41.746Z,18.77
2022-10-15T10:28:56.651Z,18.46
2022-10-15T10:34:03.744Z,18.30
2022-10-15T10:39:14.861Z,18.33
2022-10-15T10:44:29.610Z,18.42
2022-10-15T10:49:42.141Z,18.57
2022-10-15T10:54:46.612Z,18.87
2022-10-15T10:59:53.184Z,18.76
2022-10-15T11:04:55.510Z,18.87
2022-10-15T11:10:05.357Z,18.80
2022-10-15T11:15:13.317Z,18.64
2022-10-15T11:20:35.225Z,18.73
2022-10-15T11:26:20.046Z,18.54
2022-10-15T11:32:02.432Z,18.22
2022-10-15T11:37:25.766Z,18.44
2022-10-15T11:42:34.483Z,18.68
2022-10-15T11:47:53.372Z,18.65
2022-10-15T11:53:07.085Z,18.66
2022-10-15T11:58:43.291Z,18.69
2022-10-15T12:03:56.886Z,18.76
2022-10-15T12:09:00.150Z,18.97
2022-10-15T12:14:07.985Z,18.85
2022-10-15T12:19:21.053Z,18.98
2022-10-15T12:24:50.408Z,19.13
2022-10-15T12:30:05.447Z,19.12
2022-10-15T12:35:23.057Z,19.10
2022-10-15T12:40:31.259Z,18.99
2022-10-15T12:45:42.221Z,18.82
2022-10-15T12:50:44.618Z,18.91
2022-10-15T12:56:15.914Z,19.04
2022-10-15T13:01:21.172Z,18.89
2022-10-15T13:06:23.613Z,18.77
2022-10-15T13:11:29.451Z,18.76
2022-10-15T13:16:31.896Z,18.71
2022-10-15T13:21:59.945Z,18.64
2022-10-15T13:27:05.699Z,18.57
2022-10-15T13:32:15.318Z,18.55
2022-10-15T13:37:20.553Z,18.51
2022-10-15T13:42:24.495Z,18.37
2022-10-15T13:47:30.820Z,18.48
2022-10-15T13:52:33.081Z,18.38
2022-10-15T13:57:35.423Z,18.35
2022-10-15T14:02:37.800Z,18.39
2022-10-15T14:07:40.138Z,18.34
2022-10-15T14:12:42.529Z,18.23
2022-10-15T14:17:44.879Z,18.21
2022-10-15T14:22:49.785Z,18.14
2022-10-15T14:27:52.602Z,18.08
2022-10-15T14:32:54.967Z,17.98
2022-10-15T14:38:10.640Z,18.11
2022-10-15T14:43:18.298Z,18.02
2022-10-15T14:48:38.646Z,18.10
2022-10-15T14:53:46.421Z,18.09
2022-10-15T14:58:52.501Z,18.07
2022-10-15T15:03:57.118Z,17.97
2022-10-15T15:08:59.429Z,18.00
2022-10-15T15:14:03.783Z,17.95
2022-10-15T15:19:09.207Z,17.93
2022-10-15T15:24:12.294Z,17.90
2022-10-15T15:29:14.777Z,17.89
2022-10-15T15:34:17.212Z,17.81
2022-10-15T15:39:19.525Z,17.95
2022-10-15T15:44:22.010Z,17.76
2022-10-15T15:49:24.290Z,17.71
2022-10-15T15:54:27.791Z,17.72
2022-10-15T15:59:30.256Z,17.67
2022-10-15T16:04:32.587Z,17.56
2022-10-15T16:09:34.922Z,17.55
2022-10-15T16:14:37.287Z,17.48
2022-10-15T16:19:39.749Z,17.44
2022-10-15T16:24:42.226Z,17.46
2022-10-15T16:29:44.532Z,17.39
2022-10-15T16:34:46.871Z,17.45
2022-10-15T16:39:49.485Z,17.40
2022-10-15T16:44:52.931Z,17.29
2022-10-15T16:49:55.818Z,17.29
2022-10-15T16:54:58.119Z,17.29
2022-10-15T17:00:00.895Z,17.31
2022-10-15T17:05:03.416Z,17.26
2022-10-15T17:10:09.645Z,17.29
2022-10-15T17:15:15.574Z,17.23
2022-10-15T17:20:18.542Z,17.13
2022-10-15T17:25:21.065Z,17.02
2022-10-15T17:30:23.487Z,17.14
2022-10-15T17:35:25.959Z,17.09
2022-10-15T17:40:28.309Z,17.06
2022-10-15T17:45:30.704Z,17.07
2022-10-15T17:50:33.088Z,17.10
2022-10-15T17:55:35.404Z,17.15
2022-10-15T18:00:37.882Z,17.20
2022-10-15T18:05:40.213Z,17.14
2022-10-15T18:10:43.057Z,17.00
2022-10-15T18:15:50.380Z,17.10
2022-10-15T18:20:52.853Z,17.13
2022-10-15T18:26:06.809Z,17.05
2022-10-15T18:31:11.984Z,17.11
2022-10-15T18:36:18.392Z,17.03
2022-10-15T18:41:33.673Z,17.02
2022-10-15T18:46:36.382Z,16.99
2022-10-15T18:51:38.814Z,16.91
2022-10-15T18:56:41.142Z,16.98
2022-10-15T19:01:44.284Z,17.08
2022-10-15T19:06:49.232Z,17.05
2022-10-15T19:11:53.121Z,16.99
2022-10-15T19:16:58.196Z,16.95
2022-10-15T19:22:00.506Z,16.90
2022-10-15T19:27:02.917Z,16.92
2022-10-15T19:32:05.571Z,16.92
2022-10-15T19:37:07.879Z,16.84
2022-10-15T19:42:19.051Z,16.80
2022-10-15T19:47:21.753Z,16.81
2022-10-15T19:52:24.138Z,16.79
2022-10-15T19:57:26.992Z,16.81
2022-10-15T20:02:29.468Z,16.90
2022-10-15T20:07:31.810Z,16.79
2022-10-15T20:12:34.184Z,16.82
2022-10-15T20:17:36.536Z,16.78
2022-10-15T20:22:38.928Z,16.73
2022-10-15T20:27:41.226Z,16.84
2022-10-15T20:32:43.603Z,16.76
2022-10-15T20:37:45.919Z,16.80
2022-10-15T20:42:48.347Z,16.88
2022-10-15T20:47:52.065Z,16.87
2022-10-15T20:52:55.808Z,16.86
2022-10-15T20:57:58.265Z,16.85
2022-10-15T21:03:00.750Z,16.80
2022-10-15T21:08:03.227Z,16.79
2022-10-15T21:13:05.633Z,16.76
2022-10-15T21:18:08.194Z,16.72
2022-10-15T21:23:10.623Z,16.79
2022-10-15T21:28:13.315Z,16.66
2022-10-15T21:33:15.875Z,16.77
2022-10-15T21:38:18.226Z,16.70
2022-10-15T21:43:20.503Z,16.67
2022-10-15T21:48:23.015Z,16.70
2022-10-15T21:53:25.278Z,16.57
2022-10-15T21:58:27.649Z,16.60
2022-10-15T22:03:29.965Z,16.55
2022-10-15T22:08:33.167Z,16.56
2022-10-15T22:13:36.311Z,16.53
2022-10-15T22:18:39.898Z,16.65
2022-10-15T22:23:44.913Z,16.68
2022-10-15T22:28:47.681Z,16.67
2022-10-15T22:33:50.195Z,16.60
2022-10-15T22:39:05.022Z,16.65
2022-10-15T22:44:20.821Z,16.64
2022-10-15T22:49:23.262Z,16.53
2022-10-15T22:54:25.839Z,16.46
2022-10-15T22:59:28.172Z,16.56
2022-10-15T23:04:30.679Z,16.66
2022-10-15T23:09:32.954Z,16.64
2022-10-15T23:14:35.281Z,16.56
2022-10-15T23:19:37.674Z,16.57
2022-10-15T23:24:39.924Z,16.62
2022-10-15T23:29:42.491Z,16.62
2022-10-15T23:34:44.798Z,16.49
2022-10-15T23:39:47.222Z,16.45
2022-10-15T23:44:49.561Z,16.48
2022-10-15T23:49:51.987Z,16.51
2022-10-15T23:54:54.347Z,16.43
2022-10-15T23:59:56.990Z,16.54
